PWSweather.com
Personal Weather Stations
Station Observations
ME1989
Sicily, Barcellona Pozzo Di GottoIT

SicilyBarcellona Pozzo Di GottoIT

Lat: 38.1487398, Lon: 15.2113962

Elevation: 131

Station Type: Peet Bros

Latest ConditionsUpdated 2:50:09 PM GMT+01:01 Tuesday, Sep 2, 2014
Currently Today's Max Today's Min Today's Average
Temperature 75.0°F23.9°C 76.5°F24.7°C 68.0°F20.0°C 73.0°F22.8°C
Dew Point 64.6°F18.1°C 66.8°F19.3°C 56.1°F13.4°C 63.2°F17.3°C
Winds 16.4 mph W26.4 kmh W 25.1 mph NW40.4 kmh NW - 15.0 mph 24.1 kmh
Wind Gusts 21.1 mph34.0 kmh 302.4 mph486.7 kmh - -
Humidity 70% 86% 52% 72%
Pressure 29.65 in1004.1 mb 29.66 in1004.4 mb 29.59 in1002.0 mb -
Precipitation - 0.32 in8.1 mm - -
Hour Temp Dew Point Humidity Winds Wind Gusts Pressure Precip Precip Rate Daily Precip Total
02:50 PM 75.0°F23.9°C 64.6°F18.1°C 70% 16.4 mph W26.4 kmh W 21.1 mph34.0 kmh 29.65 in1004.1 mb 0.00 in0.0 mm 0.00 in/hr0.0 mm/hr 0.32 in8.1 mm
02:40 PM 73.2°F22.9°C 65.5°F18.6°C 77% 6.4 mph NNW10.3 kmh NNW 7.8 mph12.6 kmh 29.66 in1004.4 mb 0.00 in0.0 mm 0.00 in/hr0.0 mm/hr 0.32 in8.1 mm
02:30 PM 73.3°F22.9°C 64.9°F18.3°C 75% 12.5 mph NNW20.1 kmh NNW 16.8 mph27.0 kmh 29.66 in1004.4 mb 0.00 in0.0 mm 0.00 in/hr0.0 mm/hr 0.32 in8.1 mm
02:20 PM 74.5°F23.6°C 65.3°F18.5°C 73% 11.3 mph NW18.2 kmh NW 19.4 mph31.2 kmh 29.66 in1004.4 mb 0.00 in0.0 mm 0.00 in/hr0.0 mm/hr 0.32 in8.1 mm
02:10 PM 75.1°F23.9°C 63.8°F17.7°C 68% 10.5 mph NW16.9 kmh NW 15.9 mph25.6 kmh 29.66 in1004.4 mb 0.00 in0.0 mm 0.00 in/hr0.0 mm/hr 0.32 in8.1 mm
02:00 PM 75.1°F23.9°C 64.2°F17.9°C 69% 11.3 mph W18.2 kmh W 17.0 mph27.4 kmh 29.66 in1004.4 mb 0.00 in0.0 mm 0.00 in/hr0.0 mm/hr 0.32 in8.1 mm
01:50 PM 73.9°F23.3°C 63.9°F17.7°C 71% 7.2 mph WNW11.6 kmh WNW 10.3 mph16.6 kmh 29.66 in1004.4 mb 0.00 in0.0 mm 0.00 in/hr0.0 mm/hr 0.32 in8.1 mm
01:40 PM 73.7°F23.2°C 64.1°F17.8°C 72% 14.8 mph WSW23.8 kmh WSW 17.4 mph28.0 kmh 29.66 in1004.4 mb 0.00 in0.0 mm 0.00 in/hr0.0 mm/hr 0.32 in8.1 mm
01:30 PM 75.2°F24.0°C 64.7°F18.2°C 70% 12.4 mph W20.0 kmh W 16.0 mph25.7 kmh 29.66 in1004.4 mb 0.00 in0.0 mm 0.00 in/hr0.0 mm/hr 0.32 in8.1 mm
01:20 PM 74.7°F23.7°C 64.2°F17.9°C 70% 13.7 mph W22.0 kmh W 16.8 mph27.0 kmh 29.66 in1004.4 mb 0.00 in0.0 mm 0.00 in/hr0.0 mm/hr 0.32 in8.1 mm
01:10 PM 74.2°F23.4°C 64.6°F18.1°C 72% 12.5 mph W20.1 kmh W 19.6 mph31.5 kmh 29.65 in1004.1 mb 0.00 in0.0 mm 0.00 in/hr0.0 mm/hr 0.32 in8.1 mm
01:00 PM 74.8°F23.8°C 64.3°F17.9°C 70% 17.7 mph W28.5 kmh W 19.3 mph31.1 kmh 29.66 in1004.4 mb 0.00 in0.0 mm 0.00 in/hr0.0 mm/hr 0.32 in8.1 mm
12:50 PM 76.5°F24.7°C 63.9°F17.7°C 65% 16.1 mph W25.9 kmh W 20.6 mph33.2 kmh 29.65 in1004.1 mb 0.00 in0.0 mm 0.00 in/hr0.0 mm/hr 0.32 in8.1 mm
12:40 PM 75.8°F24.3°C 64.5°F18.1°C 68% 13.2 mph W21.2 kmh W 19.3 mph31.1 kmh 29.65 in1004.1 mb 0.00 in0.0 mm 0.00 in/hr0.0 mm/hr 0.32 in8.1 mm
12:30 PM 76.1°F24.5°C 63.9°F17.7°C 66% 13.9 mph W22.4 kmh W 17.7 mph28.5 kmh 29.65 in1004.1 mb 0.00 in0.0 mm 0.00 in/hr0.0 mm/hr 0.32 in8.1 mm
12:20 PM 76.5°F24.7°C 64.3°F17.9°C 66% 16.9 mph WNW27.2 kmh WNW 23.7 mph38.1 kmh 29.64 in1003.7 mb 0.00 in0.0 mm 0.00 in/hr0.0 mm/hr 0.32 in8.1 mm
12:10 PM 76.3°F24.6°C 64.5°F18.1°C 67% 15.5 mph W24.9 kmh W 24.8 mph39.9 kmh 29.65 in1004.1 mb 0.00 in0.0 mm 0.00 in/hr0.0 mm/hr 0.32 in8.1 mm
12:00 PM 76.1°F24.5°C 64.8°F18.2°C 68% 15.0 mph W24.1 kmh W 20.9 mph33.6 kmh 29.65 in1004.1 mb 0.00 in0.0 mm 0.00 in/hr0.0 mm/hr 0.32 in8.1 mm
11:50 AM 76.5°F24.7°C 65.1°F18.4°C 68% 17.0 mph W27.4 kmh W 23.2 mph37.3 kmh 29.64 in1003.7 mb 0.00 in0.0 mm 0.00 in/hr0.0 mm/hr 0.32 in8.1 mm
11:40 AM 75.3°F24.1°C 64.0°F17.8°C 68% 17.7 mph WSW28.5 kmh WSW 25.5 mph41.0 kmh 29.64 in1003.7 mb 0.00 in0.0 mm 0.00 in/hr0.0 mm/hr 0.32 in8.1 mm
11:30 AM 75.5°F24.2°C 65.0°F18.3°C 70% 15.2 mph WNW24.5 kmh WNW 22.9 mph36.9 kmh 29.64 in1003.7 mb 0.00 in0.0 mm 0.00 in/hr0.0 mm/hr 0.32 in8.1 mm
11:20 AM 75.4°F24.1°C 64.5°F18.1°C 69% 15.3 mph WNW24.6 kmh WNW 22.9 mph36.9 kmh 29.65 in1004.1 mb 0.00 in0.0 mm 0.00 in/hr0.0 mm/hr 0.32 in8.1 mm
11:10 AM 75.1°F23.9°C 64.6°F18.1°C 70% 16.5 mph WNW26.6 kmh WNW 22.1 mph35.6 kmh 29.64 in1003.7 mb 0.00 in0.0 mm 0.00 in/hr0.0 mm/hr 0.32 in8.1 mm
11:00 AM 74.7°F23.7°C 65.1°F18.4°C 72% 12.9 mph NW20.8 kmh NW 17.7 mph28.5 kmh 29.64 in1003.7 mb 0.00 in0.0 mm 0.00 in/hr0.0 mm/hr 0.32 in8.1 mm
10:50 AM 74.0°F23.3°C 64.0°F17.8°C 71% 17.2 mph WNW27.7 kmh WNW 19.6 mph31.5 kmh 29.64 in1003.7 mb 0.00 in0.0 mm 0.00 in/hr0.0 mm/hr 0.32 in8.1 mm
10:40 AM 73.8°F23.2°C 65.4°F18.6°C 75% 15.8 mph NW25.4 kmh NW 255.4 mph411.0 kmh 29.63 in1003.4 mb 0.00 in0.0 mm 0.00 in/hr0.0 mm/hr 0.32 in8.1 mm
10:30 AM 73.3°F22.9°C 65.3°F18.5°C 76% 13.8 mph WNW22.2 kmh WNW 20.0 mph32.2 kmh 29.63 in1003.4 mb 0.00 in0.0 mm 0.00 in/hr0.0 mm/hr 0.32 in8.1 mm
10:20 AM 71.8°F22.1°C 66.7°F19.3°C 84% 11.5 mph W18.5 kmh W 20.7 mph33.3 kmh 29.63 in1003.4 mb 0.00 in0.0 mm 0.00 in/hr0.0 mm/hr 0.32 in8.1 mm
10:10 AM 71.2°F21.8°C 66.8°F19.3°C 86% 12.5 mph W20.1 kmh W 19.0 mph30.6 kmh 29.63 in1003.4 mb 0.00 in0.0 mm 0.00 in/hr0.0 mm/hr 0.32 in8.1 mm
10:00 AM 70.6°F21.4°C 66.2°F19.0°C 86% 15.5 mph WSW24.9 kmh WSW 23.8 mph38.3 kmh 29.63 in1003.4 mb 0.01 in0.3 mm 0.01 in/hr0.3 mm/hr 0.32 in8.1 mm
09:50 AM 70.4°F21.3°C 65.7°F18.7°C 85% 13.2 mph WSW21.2 kmh WSW 21.6 mph34.8 kmh 29.63 in1003.4 mb 0.05 in1.3 mm 0.30 in/hr7.6 mm/hr 0.32 in8.1 mm
09:40 AM 70.6°F21.4°C 64.8°F18.2°C 82% 13.3 mph WSW21.4 kmh WSW 16.7 mph26.9 kmh 29.63 in1003.4 mb 0.00 in0.0 mm 0.00 in/hr0.0 mm/hr 0.27 in6.9 mm
09:30 AM 71.1°F21.7°C 65.0°F18.3°C 81% 14.8 mph W23.8 kmh W 21.0 mph33.8 kmh 29.63 in1003.4 mb 0.00 in0.0 mm 0.00 in/hr0.0 mm/hr 0.27 in6.9 mm
09:20 AM 71.4°F21.9°C 64.2°F17.9°C 78% 21.9 mph W35.2 kmh W 32.0 mph51.5 kmh 29.62 in1003.0 mb 0.00 in0.0 mm 0.00 in/hr0.0 mm/hr 0.27 in6.9 mm
09:10 AM 72.5°F22.5°C 64.5°F18.1°C 76% 18.6 mph WNW29.9 kmh WNW 23.2 mph37.3 kmh 29.62 in1003.0 mb 0.00 in0.0 mm 0.00 in/hr0.0 mm/hr 0.27 in6.9 mm
09:00 AM 73.7°F23.2°C 64.5°F18.1°C 73% 21.7 mph WNW34.9 kmh WNW 28.3 mph45.5 kmh 29.62 in1003.0 mb 0.00 in0.0 mm 0.00 in/hr0.0 mm/hr 0.27 in6.9 mm
08:50 AM 72.6°F22.6°C 64.6°F18.1°C 76% 16.0 mph W25.7 kmh W 22.1 mph35.6 kmh 29.61 in1002.7 mb 0.01 in0.3 mm 0.06 in/hr1.5 mm/hr 0.27 in6.9 mm
08:40 AM 69.9°F21.1°C 64.5°F18.1°C 83% 17.9 mph W28.8 kmh W 22.6 mph36.4 kmh 29.61 in1002.7 mb 0.02 in0.5 mm 0.12 in/hr3.0 mm/hr 0.26 in6.6 mm
08:30 AM 71.2°F21.8°C 65.7°F18.7°C 83% 19.7 mph WNW31.7 kmh WNW 25.5 mph41.0 kmh 29.61 in1002.7 mb 0.01 in0.3 mm 0.06 in/hr1.5 mm/hr 0.24 in6.1 mm
08:20 AM 71.3°F21.8°C 64.8°F18.2°C 80% 16.0 mph W25.7 kmh W 19.0 mph30.6 kmh 29.61 in1002.7 mb 0.00 in0.0 mm 0.00 in/hr0.0 mm/hr 0.23 in5.8 mm
08:10 AM 73.4°F23.0°C 64.6°F18.1°C 74% 17.0 mph WNW27.4 kmh WNW 25.5 mph41.0 kmh 29.60 in1002.4 mb 0.00 in0.0 mm 0.00 in/hr0.0 mm/hr 0.23 in5.8 mm
08:00 AM 74.1°F23.4°C 64.1°F17.8°C 71% 22.4 mph W36.0 kmh W 29.8 mph48.0 kmh 29.59 in1002.0 mb 0.01 in0.3 mm 0.01 in/hr0.3 mm/hr 0.23 in5.8 mm
07:50 AM 73.6°F23.1°C 64.8°F18.2°C 74% 15.5 mph W24.9 kmh W 23.7 mph38.1 kmh 29.59 in1002.0 mb 0.00 in0.0 mm 0.00 in/hr0.0 mm/hr 0.23 in5.8 mm
07:40 AM 73.1°F22.8°C 64.7°F18.2°C 75% 14.3 mph W23.0 kmh W 20.0 mph32.2 kmh 29.59 in1002.0 mb 0.00 in0.0 mm 0.00 in/hr0.0 mm/hr 0.22 in5.6 mm
07:30 AM 71.4°F21.9°C 65.3°F18.5°C 81% 19.7 mph WSW31.7 kmh WSW 30.4 mph48.9 kmh 29.60 in1002.4 mb 0.00 in0.0 mm 0.00 in/hr0.0 mm/hr 0.22 in5.6 mm
07:20 AM 71.2°F21.8°C 65.8°F18.8°C 83% 9.6 mph WSW15.4 kmh WSW 12.7 mph20.4 kmh 29.60 in1002.4 mb 0.00 in0.0 mm 0.00 in/hr0.0 mm/hr 0.22 in5.6 mm
07:10 AM 71.0°F21.7°C 64.9°F18.3°C 81% 15.5 mph W24.9 kmh W 175.0 mph281.6 kmh 29.60 in1002.4 mb 0.00 in0.0 mm 0.00 in/hr0.0 mm/hr 0.22 in5.6 mm
07:00 AM 73.1°F22.8°C 64.7°F18.2°C 75% 13.3 mph W21.4 kmh W 19.3 mph31.1 kmh 29.59 in1002.0 mb 0.00 in0.0 mm 0.00 in/hr0.0 mm/hr 0.22 in5.6 mm
06:50 AM 73.4°F23.0°C 64.2°F17.9°C 73% 17.6 mph W28.3 kmh W 19.3 mph31.1 kmh 29.59 in1002.0 mb 0.00 in0.0 mm 0.00 in/hr0.0 mm/hr 0.22 in5.6 mm
06:40 AM 72.8°F22.7°C 63.7°F17.6°C 73% 15.8 mph W25.4 kmh W 19.6 mph31.5 kmh 29.59 in1002.0 mb 0.00 in0.0 mm 0.00 in/hr0.0 mm/hr 0.22 in5.6 mm
06:30 AM 71.7°F22.1°C 64.1°F17.8°C 77% 16.1 mph WSW25.9 kmh WSW 143.2 mph230.5 kmh 29.59 in1002.0 mb 0.00 in0.0 mm 0.00 in/hr0.0 mm/hr 0.22 in5.6 mm
06:20 AM 71.2°F21.8°C 64.7°F18.2°C 80% 13.0 mph WSW20.9 kmh WSW 17.3 mph27.8 kmh 29.59 in1002.0 mb 0.00 in0.0 mm 0.00 in/hr0.0 mm/hr 0.22 in5.6 mm
06:10 AM 71.2°F21.8°C 63.6°F17.6°C 77% 14.7 mph WSW23.7 kmh WSW 23.8 mph38.3 kmh 29.59 in1002.0 mb 0.05 in1.3 mm 0.30 in/hr7.6 mm/hr 0.22 in5.6 mm
06:00 AM 72.6°F22.6°C 61.9°F16.6°C 69% 20.9 mph W33.6 kmh W 31.9 mph51.3 kmh 29.59 in1002.0 mb 0.00 in0.0 mm 0.00 in/hr0.0 mm/hr 0.17 in4.3 mm
05:50 AM 71.5°F21.9°C 62.4°F16.9°C 73% 12.3 mph WSW19.8 kmh WSW 17.5 mph28.2 kmh 29.59 in1002.0 mb 0.00 in0.0 mm 0.00 in/hr0.0 mm/hr 0.17 in4.3 mm
05:40 AM 73.1°F22.8°C 62.7°F17.1°C 70% 9.9 mph WSW15.9 kmh WSW 12.4 mph20.0 kmh 29.59 in1002.0 mb 0.00 in0.0 mm 0.00 in/hr0.0 mm/hr 0.17 in4.3 mm
05:30 AM 73.2°F22.9°C 62.8°F17.1°C 70% 13.0 mph WSW20.9 kmh WSW 15.7 mph25.3 kmh 29.59 in1002.0 mb 0.00 in0.0 mm 0.00 in/hr0.0 mm/hr 0.17 in4.3 mm
05:20 AM 72.6°F22.6°C 63.8°F17.7°C 74% 18.3 mph WSW29.5 kmh WSW 24.4 mph39.3 kmh 29.59 in1002.0 mb 0.00 in0.0 mm 0.00 in/hr0.0 mm/hr 0.17 in4.3 mm
05:10 AM 71.1°F21.7°C 63.1°F17.3°C 76% 12.9 mph WSW20.8 kmh WSW 25.6 mph41.2 kmh 29.59 in1002.0 mb 0.00 in0.0 mm 0.00 in/hr0.0 mm/hr 0.17 in4.3 mm
05:00 AM 70.7°F21.5°C 62.4°F16.9°C 75% 10.3 mph SW16.6 kmh SW 13.1 mph21.1 kmh 29.59 in1002.0 mb 0.00 in0.0 mm 0.00 in/hr0.0 mm/hr 0.17 in4.3 mm
04:50 AM 70.8°F21.6°C 62.5°F16.9°C 75% 12.1 mph WSW19.5 kmh WSW 15.1 mph24.3 kmh 29.59 in1002.0 mb 0.00 in0.0 mm 0.00 in/hr0.0 mm/hr 0.17 in4.3 mm
04:40 AM 70.6°F21.4°C 62.3°F16.8°C 75% 8.4 mph SW13.5 kmh SW 12.6 mph20.3 kmh 29.59 in1002.0 mb 0.00 in0.0 mm 0.00 in/hr0.0 mm/hr 0.17 in4.3 mm
04:30 AM 71.0°F21.7°C 63.4°F17.4°C 77% 17.8 mph WSW28.6 kmh WSW 21.6 mph34.8 kmh 29.59 in1002.0 mb 0.00 in0.0 mm 0.00 in/hr0.0 mm/hr 0.17 in4.3 mm
04:20 AM 70.3°F21.3°C 63.1°F17.3°C 78% 16.8 mph WSW27.0 kmh WSW 22.4 mph36.0 kmh 29.60 in1002.4 mb 0.00 in0.0 mm 0.00 in/hr0.0 mm/hr 0.17 in4.3 mm
04:10 AM 70.0°F21.1°C 63.2°F17.3°C 79% 15.1 mph WSW24.3 kmh WSW 302.4 mph486.7 kmh 29.59 in1002.0 mb 0.00 in0.0 mm 0.00 in/hr0.0 mm/hr 0.17 in4.3 mm
04:00 AM 69.5°F20.8°C 64.1°F17.8°C 83% 17.0 mph WSW27.4 kmh WSW 28.7 mph46.2 kmh 29.59 in1002.0 mb 0.02 in0.5 mm 0.02 in/hr0.5 mm/hr 0.17 in4.3 mm
03:50 AM 68.4°F20.2°C 63.7°F17.6°C 85% 20.5 mph W33.0 kmh W 29.0 mph46.7 kmh 29.61 in1002.7 mb 0.06 in1.5 mm 0.36 in/hr9.1 mm/hr 0.16 in4.1 mm
03:40 AM 69.6°F20.9°C 64.2°F17.9°C 83% 16.9 mph WNW27.2 kmh WNW 23.7 mph38.1 kmh 29.61 in1002.7 mb 0.04 in1.0 mm 0.24 in/hr6.1 mm/hr 0.11 in2.8 mm
03:30 AM 72.4°F22.4°C 64.1°F17.8°C 75% 9.2 mph W14.8 kmh W 14.6 mph23.5 kmh 29.60 in1002.4 mb 0.00 in0.0 mm 0.00 in/hr0.0 mm/hr 0.06 in1.5 mm
03:20 AM 73.7°F23.2°C 62.0°F16.7°C 67% 15.0 mph W24.1 kmh W 17.6 mph28.3 kmh 29.60 in1002.4 mb 0.00 in0.0 mm 0.00 in/hr0.0 mm/hr 0.06 in1.5 mm
03:10 AM 73.6°F23.1°C 60.7°F15.9°C 64% 14.5 mph WSW23.3 kmh WSW 20.5 mph33.0 kmh 29.60 in1002.4 mb 0.00 in0.0 mm 0.00 in/hr0.0 mm/hr 0.06 in1.5 mm
03:00 AM 74.2°F23.4°C 59.9°F15.5°C 61% 19.1 mph WSW30.7 kmh WSW 25.2 mph40.6 kmh 29.60 in1002.4 mb 0.00 in0.0 mm 0.00 in/hr0.0 mm/hr 0.06 in1.5 mm
02:50 AM 73.9°F23.3°C 60.6°F15.9°C 63% 16.0 mph W25.7 kmh W 28.9 mph46.5 kmh 29.59 in1002.0 mb 0.00 in0.0 mm 0.00 in/hr0.0 mm/hr 0.06 in1.5 mm
02:40 AM 73.7°F23.2°C 59.8°F15.4°C 62% 18.9 mph WSW30.4 kmh WSW 29.4 mph47.3 kmh 29.59 in1002.0 mb 0.00 in0.0 mm 0.00 in/hr0.0 mm/hr 0.06 in1.5 mm
02:30 AM 73.7°F23.2°C 59.8°F15.4°C 62% 21.6 mph WSW34.8 kmh WSW 29.0 mph46.7 kmh 29.59 in1002.0 mb 0.00 in0.0 mm 0.00 in/hr0.0 mm/hr 0.06 in1.5 mm
02:20 AM 73.0°F22.8°C 60.5°F15.8°C 65% 21.8 mph W35.1 kmh W 31.1 mph50.1 kmh 29.60 in1002.4 mb 0.00 in0.0 mm 0.00 in/hr0.0 mm/hr 0.06 in1.5 mm
02:10 AM 72.4°F22.4°C 60.4°F15.8°C 66% 22.6 mph WSW36.4 kmh WSW 28.5 mph45.9 kmh 29.60 in1002.4 mb 0.01 in0.3 mm 0.06 in/hr1.5 mm/hr 0.06 in1.5 mm
02:00 AM 69.0°F20.6°C 64.0°F17.8°C 84% 8.6 mph WSW13.8 kmh WSW 19.8 mph31.9 kmh 29.61 in1002.7 mb 0.01 in0.3 mm 0.01 in/hr0.3 mm/hr 0.05 in1.3 mm
01:50 AM 68.0°F20.0°C 63.0°F17.2°C 84% 14.7 mph W23.7 kmh W 23.4 mph37.7 kmh 29.62 in1003.0 mb 0.03 in0.8 mm 0.18 in/hr4.6 mm/hr 0.04 in1.0 mm
01:40 AM 69.0°F20.6°C 63.6°F17.6°C 83% 14.6 mph W23.5 kmh W 20.2 mph32.5 kmh 29.62 in1003.0 mb 0.01 in0.3 mm 0.06 in/hr1.5 mm/hr 0.01 in0.3 mm
01:30 AM 69.1°F20.6°C 64.4°F18.0°C 85% 18.2 mph WNW29.3 kmh WNW 24.1 mph38.8 kmh 29.62 in1003.0 mb 0.00 in0.0 mm 0.00 in/hr0.0 mm/hr 0.00 in0.0 mm
01:20 AM 74.3°F23.5°C 57.6°F14.2°C 56% 25.1 mph NW40.4 kmh NW 33.8 mph54.4 kmh 29.62 in1003.0 mb 0.00 in0.0 mm 0.00 in/hr0.0 mm/hr 0.00 in0.0 mm
01:10 AM 75.8°F24.3°C 56.9°F13.8°C 52% 12.3 mph W19.8 kmh W 13.6 mph21.9 kmh 29.61 in1002.7 mb 0.00 in0.0 mm 0.00 in/hr0.0 mm/hr 0.00 in0.0 mm
01:00 AM 75.7°F24.3°C 57.8°F14.3°C 54% 11.5 mph WSW18.5 kmh WSW 18.6 mph29.9 kmh 29.61 in1002.7 mb 0.00 in0.0 mm 0.00 in/hr0.0 mm/hr 0.00 in0.0 mm
12:50 AM 75.6°F24.2°C 57.8°F14.3°C 54% 15.7 mph WSW25.3 kmh WSW 23.7 mph38.1 kmh 29.61 in1002.7 mb 0.00 in0.0 mm 0.00 in/hr0.0 mm/hr 0.00 in0.0 mm
12:40 AM 75.1°F23.9°C 57.9°F14.4°C 55% 12.9 mph W20.8 kmh W 20.6 mph33.2 kmh 29.62 in1003.0 mb 0.00 in0.0 mm 0.00 in/hr0.0 mm/hr 0.00 in0.0 mm
12:30 AM 75.2°F24.0°C 56.9°F13.8°C 53% 14.5 mph WSW23.3 kmh WSW 19.0 mph30.6 kmh 29.61 in1002.7 mb 0.00 in0.0 mm 0.00 in/hr0.0 mm/hr 0.00 in0.0 mm
12:20 AM 74.6°F23.7°C 56.4°F13.6°C 53% 8.3 mph WSW13.4 kmh WSW 13.4 mph21.6 kmh 29.62 in1003.0 mb 0.00 in0.0 mm 0.00 in/hr0.0 mm/hr 0.00 in0.0 mm
12:10 AM 74.9°F23.8°C 56.1°F13.4°C 52% 10.9 mph SW17.5 kmh SW 13.8 mph22.2 kmh 29.62 in1003.0 mb 0.00 in0.0 mm 0.00 in/hr0.0 mm/hr 0.00 in0.0 mm
12:00 AM 74.7°F23.7°C 56.4°F13.6°C 53% 9.6 mph SW15.4 kmh SW 11.7 mph18.8 kmh 29.62 in1003.0 mb 0.00 in0.0 mm 0.00 in/hr0.0 mm/hr 0.00 in0.0 mm